Погода Шаринона 2 недели

Витебская область, Белоруссия

23 мая-05 июня
  • 23мая
    Сегодня
    +11°
    +24°
    Ясно и безоблачно
    ВремяПогодаТемператураВлажностьДавлениеВетер, м/сВероятность осадков
    00:00Ясно и безоблачно+15°C91 %750 мм2.7 м/с2 %
    03:00Ясно и безоблачно+13°C92 %750 мм3.5 м/с2 %
    06:00Ясно и безоблачно+13°C77 %751 мм3.9 м/с2 %
    09:00Ясно и безоблачно+17°C61 %752 мм3.9 м/с2 %
    12:00Ясно и безоблачно+22°C52 %753 мм4.8 м/с2 %
    15:00Ясно и безоблачно+24°C43 %753 мм4.9 м/с2 %
    18:00Ясно и безоблачно+23°C43 %752 мм4.5 м/с2 %
    21:00Ясно и безоблачно+18°C54 %753 мм3.5 м/с2 %
  • 24мая
    Пятница
    +10°
    +22°
    Ясно и безоблачно
    ВремяПогодаТемператураВлажностьДавлениеВетер, м/сВероятность осадков
    00:00Ясно и безоблачно+15°C57 %754 мм4.3 м/с2 %
    03:00Ясно и безоблачно+13°C62 %755 мм3.5 м/с2 %
    06:00Ясно и безоблачно+12°C66 %756 мм3.9 м/с2 %
    09:00Ясно и безоблачно+16°C55 %756 мм4.1 м/с2 %
    12:00Ясно и безоблачно+20°C45 %756 мм4.2 м/с2 %
    15:00Ясно и безоблачно+21°C42 %756 мм4.0 м/с2 %
    18:00Ясно и безоблачно+22°C42 %755 мм3.8 м/с2 %
    21:00Ясно и безоблачно+17°C57 %755 мм2.7 м/с2 %
  • 25мая
    Суббота
    +10°
    +24°
    Ясно и безоблачно
    ВремяПогодаТемператураВлажностьДавлениеВетер, м/сВероятность осадков
    00:00Ясно и безоблачно+13°C63 %755 мм2.8 м/с2 %
    03:00Ясно и безоблачно+11°C69 %755 мм2.5 м/с2 %
    06:00Ясно и безоблачно+11°C73 %755 мм2.8 м/с2 %
    09:00Ясно и безоблачно+16°C62 %755 мм2.6 м/с2 %
    12:00Ясно и безоблачно+21°C47 %754 мм2.7 м/с2 %
    15:00Ясно и безоблачно+23°C40 %753 мм2.9 м/с2 %
    18:00Ясно и безоблачно+24°C40 %752 мм2.4 м/с5 %
    21:00Ясно и безоблачно+17°C67 %752 мм2.6 м/с2 %
  • 26мая
    Воскресенье
    +11°
    +25°
    Ясно и безоблачно
    ВремяПогодаТемператураВлажностьДавлениеВетер, м/сВероятность осадков
    00:00Практически безоблачно+14°C73 %752 мм2.0 м/с3 %
    03:00Практически безоблачно+13°C77 %752 мм1.9 м/с4 %
    06:00Практически безоблачно+13°C77 %752 мм1.5 м/с5 %
    09:00Ясно и безоблачно+18°C53 %752 мм1.1 м/с2 %
    12:00Небольшая облачность+23°C40 %753 мм1.5 м/с7 %
    15:00Ясно и безоблачно+24°C38 %752 мм1.7 м/с8 %
    18:00Облачно с прояснениями+25°C40 %752 мм1.4 м/с17 %
    21:00Облачно с прояснениями+19°C68 %752 мм2.5 м/с2 %
  • 27мая
    Понедельник
    +13°
    +26°
    Ясно и безоблачно
    ВремяПогодаТемператураВлажностьДавлениеВетер, м/сВероятность осадков
    00:00Ясно и безоблачно+17°C67 %752 мм2.5 м/с2 %
    03:00Ясно и безоблачно+15°C69 %752 мм1.9 м/с2 %
    06:00Ясно и безоблачно+14°C77 %753 мм1.7 м/с2 %
    09:00Ясно и безоблачно+21°C53 %753 мм1.3 м/с4 %
    12:00Практически безоблачно+24°C38 %753 мм1.6 м/с16 %
    15:00Ясно и безоблачно+25°C40 %753 мм1.5 м/с26 %
    18:00Практически безоблачно+25°C41 %752 мм1.5 м/с31 %
    21:00Ясно и безоблачно+20°C63 %752 мм2.2 м/с11 %
Мы используем cookies
Соглашаюсь